sensor_id;sensor_type;location;lat;lon;timestamp;pressure;altitude;pressure_sealevel;temperature;humidity
18436;BME280;9346;52.006;4.720;2024-02-23T00:01:24;98551.16;;;7.81;100.00
18436;BME280;9346;52.006;4.720;2024-02-23T00:03:50;98556.84;;;7.85;100.00
18436;BME280;9346;52.006;4.720;2024-02-23T00:06:19;98558.44;;;7.86;100.00
18436;BME280;9346;52.006;4.720;2024-02-23T00:08:45;98569.91;;;7.88;100.00
18436;BME280;9346;52.006;4.720;2024-02-23T00:11:12;98568.59;;;7.85;100.00
18436;BME280;9346;52.006;4.720;2024-02-23T00:13:39;98577.63;;;7.86;100.00
18436;BME280;9346;52.006;4.720;2024-02-23T00:16:06;98569.91;;;7.88;100.00
18436;BME280;9346;52.006;4.720;2024-02-23T00:18:33;98564.13;;;7.89;100.00
18436;BME280;9346;52.006;4.720;2024-02-23T00:20:59;98574.25;;;7.89;100.00
18436;BME280;9346;52.006;4.720;2024-02-23T00:23:28;98568.78;;;7.89;100.00
18436;BME280;9346;52.006;4.720;2024-02-23T00:25:55;98578.75;;;7.85;100.00
18436;BME280;9346;52.006;4.720;2024-02-23T00:28:22;98582.78;;;7.87;100.00
18436;BME280;9346;52.006;4.720;2024-02-23T00:30:48;98586.84;;;7.90;100.00
18436;BME280;9346;52.006;4.720;2024-02-23T00:33:15;98592.31;;;7.90;100.00
18436;BME280;9346;52.006;4.720;2024-02-23T00:35:41;98601.16;;;7.87;100.00
18436;BME280;9346;52.006;4.720;2024-02-23T00:38:08;98616.50;;;7.88;100.00
18436;BME280;9346;52.006;4.720;2024-02-23T00:40:36;98628.69;;;7.82;100.00
18436;BME280;9346;52.006;4.720;2024-02-23T00:43:03;98603.47;;;7.71;100.00
18436;BME280;9346;52.006;4.720;2024-02-23T00:45:31;98605.59;;;7.61;100.00
18436;BME280;9346;52.006;4.720;2024-02-23T00:47:57;98605.53;;;7.52;100.00
18436;BME280;9346;52.006;4.720;2024-02-23T00:50:24;98613.53;;;7.49;100.00
18436;BME280;9346;52.006;4.720;2024-02-23T00:52:52;98634.84;;;7.52;100.00
18436;BME280;9346;52.006;4.720;2024-02-23T00:55:18;98627.97;;;7.54;100.00
18436;BME280;9346;52.006;4.720;2024-02-23T00:57:47;98621.34;;;7.55;100.00
18436;BME280;9346;52.006;4.720;2024-02-23T01:00:14;98641.03;;;7.57;100.00
18436;BME280;9346;52.006;4.720;2024-02-23T01:02:41;98642.66;;;7.58;100.00
18436;BME280;9346;52.006;4.720;2024-02-23T01:05:08;98639.91;;;7.58;100.00
18436;BME280;9346;52.006;4.720;2024-02-23T01:07:35;98642.66;;;7.58;100.00
18436;BME280;9346;52.006;4.720;2024-02-23T01:10:02;98650.56;;;7.60;100.00
18436;BME280;9346;52.006;4.720;2024-02-23T01:12:29;98652.69;;;7.63;100.00
18436;BME280;9346;52.006;4.720;2024-02-23T01:14:57;98663.81;;;7.66;100.00
18436;BME280;9346;52.006;4.720;2024-02-23T01:17:24;98674.31;;;7.64;100.00
18436;BME280;9346;52.006;4.720;2024-02-23T01:19:51;98675.41;;;7.63;100.00
18436;BME280;9346;52.006;4.720;2024-02-23T01:22:18;98673.59;;;7.59;100.00
18436;BME280;9346;52.006;4.720;2024-02-23T01:24:45;98671.97;;;7.58;100.00
18436;BME280;9346;52.006;4.720;2024-02-23T01:27:11;98668.91;;;7.59;100.00
18436;BME280;9346;52.006;4.720;2024-02-23T01:29:38;98672.28;;;7.56;100.00
18436;BME280;9346;52.006;4.720;2024-02-23T01:32:07;98670.66;;;7.55;100.00
18436;BME280;9346;52.006;4.720;2024-02-23T01:34:33;98672.56;;;7.55;100.00
18436;BME280;9346;52.006;4.720;2024-02-23T01:37:00;98663.56;;;7.54;100.00
18436;BME280;9346;52.006;4.720;2024-02-23T01:39:28;98674.84;;;7.53;100.00
18436;BME280;9346;52.006;4.720;2024-02-23T01:41:54;98685.28;;;7.51;100.00
18436;BME280;9346;52.006;4.720;2024-02-23T01:44:21;98682.84;;;7.49;100.00
18436;BME280;9346;52.006;4.720;2024-02-23T01:46:49;98681.91;;;7.54;100.00
18436;BME280;9346;52.006;4.720;2024-02-23T01:49:20;98691.75;;;7.55;100.00
18436;BME280;9346;52.006;4.720;2024-02-23T01:51:47;98693.69;;;7.54;100.00
18436;BME280;9346;52.006;4.720;2024-02-23T01:54:15;98687.69;;;7.52;100.00
18436;BME280;9346;52.006;4.720;2024-02-23T01:56:43;98685.09;;;7.47;100.00
18436;BME280;9346;52.006;4.720;2024-02-23T01:59:10;98680.22;;;7.44;100.00
18436;BME280;9346;52.006;4.720;2024-02-23T02:01:37;98679.41;;;7.44;100.00
18436;BME280;9346;52.006;4.720;2024-02-23T02:04:03;98684.56;;;7.45;100.00
18436;BME280;9346;52.006;4.720;2024-02-23T02:06:32;98692.78;;;7.45;100.00
18436;BME280;9346;52.006;4.720;2024-02-23T02:08:58;98689.53;;;7.43;100.00
18436;BME280;9346;52.006;4.720;2024-02-23T02:11:25;98686.00;;;7.43;100.00
18436;BME280;9346;52.006;4.720;2024-02-23T02:13:52;98701.63;;;7.42;100.00
18436;BME280;9346;52.006;4.720;2024-02-23T02:16:19;98697.25;;;7.41;100.00
18436;BME280;9346;52.006;4.720;2024-02-23T02:18:45;98708.22;;;7.41;100.00
18436;BME280;9346;52.006;4.720;2024-02-23T02:21:12;98710.94;;;7.41;100.00
18436;BME280;9346;52.006;4.720;2024-02-23T02:23:40;98696.22;;;7.37;100.00
18436;BME280;9346;52.006;4.720;2024-02-23T02:26:07;98708.31;;;7.36;100.00
18436;BME280;9346;52.006;4.720;2024-02-23T02:28:34;98714.38;;;7.33;100.00
18436;BME280;9346;52.006;4.720;2024-02-23T02:31:00;98710.41;;;7.26;100.00
18436;BME280;9346;52.006;4.720;2024-02-23T02:33:28;98712.97;;;7.22;100.00
18436;BME280;9346;52.006;4.720;2024-02-23T02:35:55;98707.59;;;7.17;100.00
18436;BME280;9346;52.006;4.720;2024-02-23T02:38:21;98712.34;;;7.12;100.00
18436;BME280;9346;52.006;4.720;2024-02-23T02:40:50;98712.94;;;7.09;100.00
18436;BME280;9346;52.006;4.720;2024-02-23T02:43:17;98718.22;;;7.05;100.00
18436;BME280;9346;52.006;4.720;2024-02-23T02:45:43;98717.13;;;7.06;100.00
18436;BME280;9346;52.006;4.720;2024-02-23T02:48:10;98710.50;;;7.07;100.00
18436;BME280;9346;52.006;4.720;2024-02-23T02:50:36;98708.91;;;7.06;100.00
18436;BME280;9346;52.006;4.720;2024-02-23T02:53:03;98711.72;;;7.01;100.00
18436;BME280;9346;52.006;4.720;2024-02-23T02:55:30;98710.31;;;7.04;100.00
18436;BME280;9346;52.006;4.720;2024-02-23T02:57:59;98714.75;;;7.00;100.00
18436;BME280;9346;52.006;4.720;2024-02-23T03:00:25;98718.31;;;7.00;100.00
18436;BME280;9346;52.006;4.720;2024-02-23T03:02:53;98718.91;;;6.97;100.00
18436;BME280;9346;52.006;4.720;2024-02-23T03:05:20;98722.25;;;6.94;100.00
18436;BME280;9346;52.006;4.720;2024-02-23T03:07:46;98724.16;;;6.93;100.00
18436;BME280;9346;52.006;4.720;2024-02-23T03:10:13;98726.72;;;6.90;100.00
18436;BME280;9346;52.006;4.720;2024-02-23T03:12:39;98732.97;;;6.90;100.00
18436;BME280;9346;52.006;4.720;2024-02-23T03:15:08;98724.88;;;6.85;100.00
18436;BME280;9346;52.006;4.720;2024-02-23T03:17:36;98742.19;;;6.81;100.00
18436;BME280;9346;52.006;4.720;2024-02-23T03:20:04;98742.19;;;6.81;100.00
18436;BME280;9346;52.006;4.720;2024-02-23T03:22:33;98737.84;;;6.80;100.00
18436;BME280;9346;52.006;4.720;2024-02-23T03:25:00;98740.06;;;6.78;100.00
18436;BME280;9346;52.006;4.720;2024-02-23T03:27:34;98742.25;;;6.76;100.00
18436;BME280;9346;52.006;4.720;2024-02-23T03:30:00;98748.66;;;6.71;100.00
18436;BME280;9346;52.006;4.720;2024-02-23T03:32:29;98738.31;;;6.68;100.00
18436;BME280;9346;52.006;4.720;2024-02-23T03:35:01;98751.47;;;6.66;100.00
18436;BME280;9346;52.006;4.720;2024-02-23T03:37:28;98749.03;;;6.65;100.00
18436;BME280;9346;52.006;4.720;2024-02-23T03:39:54;98752.66;;;6.60;100.00
18436;BME280;9346;52.006;4.720;2024-02-23T03:42:21;98744.75;;;6.59;100.00
18436;BME280;9346;52.006;4.720;2024-02-23T03:44:48;98748.81;;;6.61;100.00
18436;BME280;9346;52.006;4.720;2024-02-23T03:47:14;98754.06;;;6.58;100.00
18436;BME280;9346;52.006;4.720;2024-02-23T03:49:43;98741.22;;;6.58;100.00
18436;BME280;9346;52.006;4.720;2024-02-23T03:52:10;98746.47;;;6.55;100.00
18436;BME280;9346;52.006;4.720;2024-02-23T03:54:36;98753.34;;;6.52;100.00
18436;BME280;9346;52.006;4.720;2024-02-23T03:57:03;98754.44;;;6.51;100.00
18436;BME280;9346;52.006;4.720;2024-02-23T03:59:30;98753.13;;;6.49;100.00
18436;BME280;9346;52.006;4.720;2024-02-23T04:01:57;98751.50;;;6.48;100.00
18436;BME280;9346;52.006;4.720;2024-02-23T04:04:23;98752.28;;;6.48;100.00
18436;BME280;9346;52.006;4.720;2024-02-23T04:06:52;98749.06;;;6.46;100.00
18436;BME280;9346;52.006;4.720;2024-02-23T04:09:18;98752.09;;;6.45;100.00
18436;BME280;9346;52.006;4.720;2024-02-23T04:11:47;98751.06;;;6.41;100.00
18436;BME280;9346;52.006;4.720;2024-02-23T04:14:13;98755.72;;;6.40;100.00
18436;BME280;9346;52.006;4.720;2024-02-23T04:16:40;98761.19;;;6.40;100.00
18436;BME280;9346;52.006;4.720;2024-02-23T04:19:07;98757.63;;;6.40;100.00
18436;BME280;9346;52.006;4.720;2024-02-23T04:21:34;98762.59;;;6.38;100.00
18436;BME280;9346;52.006;4.720;2024-02-23T04:24:02;98760.38;;;6.40;100.00
18436;BME280;9346;52.006;4.720;2024-02-23T04:26:29;98757.34;;;6.41;100.00
18436;BME280;9346;52.006;4.720;2024-02-23T04:28:55;98766.66;;;6.40;100.00
18436;BME280;9346;52.006;4.720;2024-02-23T04:31:22;98770.50;;;6.39;100.00
18436;BME280;9346;52.006;4.720;2024-02-23T04:33:49;98767.19;;;6.42;100.00
18436;BME280;9346;52.006;4.720;2024-02-23T04:36:19;98779.44;;;6.45;100.00
18436;BME280;9346;52.006;4.720;2024-02-23T04:38:46;98768.50;;;6.45;100.00
18436;BME280;9346;52.006;4.720;2024-02-23T04:41:14;98770.66;;;6.48;100.00
18436;BME280;9346;52.006;4.720;2024-02-23T04:43:41;98775.00;;;6.49;100.00
18436;BME280;9346;52.006;4.720;2024-02-23T04:46:07;98777.44;;;6.50;100.00
18436;BME280;9346;52.006;4.720;2024-02-23T04:48:34;98781.19;;;6.54;100.00
18436;BME280;9346;52.006;4.720;2024-02-23T04:51:01;98783.94;;;6.54;100.00
18436;BME280;9346;52.006;4.720;2024-02-23T04:53:28;98776.84;;;6.53;100.00
18436;BME280;9346;52.006;4.720;2024-02-23T04:55:55;98786.38;;;6.56;100.00
18436;BME280;9346;52.006;4.720;2024-02-23T04:58:23;98775.94;;;6.58;100.00
18436;BME280;9346;52.006;4.720;2024-02-23T05:00:50;98775.13;;;6.57;100.00
18436;BME280;9346;52.006;4.720;2024-02-23T05:03:17;98778.69;;;6.58;100.00
18436;BME280;9346;52.006;4.720;2024-02-23T05:05:44;98787.38;;;6.60;100.00
18436;BME280;9346;52.006;4.720;2024-02-23T05:08:10;98773.22;;;6.58;100.00
18436;BME280;9346;52.006;4.720;2024-02-23T05:10:38;98771.81;;;6.60;100.00
18436;BME280;9346;52.006;4.720;2024-02-23T05:13:04;98773.94;;;6.63;100.00
18436;BME280;9346;52.006;4.720;2024-02-23T05:15:32;98778.00;;;6.66;100.00
18436;BME280;9346;52.006;4.720;2024-02-23T05:17:59;98771.44;;;6.67;100.00
18436;BME280;9346;52.006;4.720;2024-02-23T05:20:26;98765.97;;;6.67;100.00
18436;BME280;9346;52.006;4.720;2024-02-23T05:22:52;98764.31;;;6.66;100.00
18436;BME280;9346;52.006;4.720;2024-02-23T05:25:19;98767.88;;;6.66;100.00
18436;BME280;9346;52.006;4.720;2024-02-23T05:27:46;98766.75;;;6.67;100.00
18436;BME280;9346;52.006;4.720;2024-02-23T05:30:13;98765.97;;;6.67;100.00
18436;BME280;9346;52.006;4.720;2024-02-23T05:32:41;98763.72;;;6.69;100.00
18436;BME280;9346;52.006;4.720;2024-02-23T05:35:09;98760.69;;;6.70;100.00
18436;BME280;9346;52.006;4.720;2024-02-23T05:37:36;98755.22;;;6.70;100.00
18436;BME280;9346;52.006;4.720;2024-02-23T05:40:04;98747.31;;;6.69;100.00
18436;BME280;9346;52.006;4.720;2024-02-23T05:42:35;98746.81;;;6.67;100.00
18436;BME280;9346;52.006;4.720;2024-02-23T05:45:02;98749.84;;;6.65;100.00
18436;BME280;9346;52.006;4.720;2024-02-23T05:47:29;98749.63;;;6.62;100.00
18436;BME280;9346;52.006;4.720;2024-02-23T05:49:58;98746.88;;;6.62;100.00
18436;BME280;9346;52.006;4.720;2024-02-23T05:52:25;98746.28;;;6.65;100.00
18436;BME280;9346;52.006;4.720;2024-02-23T05:54:52;98750.75;;;6.61;100.00
18436;BME280;9346;52.006;4.720;2024-02-23T05:57:21;98751.84;;;6.60;100.00
18436;BME280;9346;52.006;4.720;2024-02-23T05:59:47;98753.97;;;6.63;100.00
18436;BME280;9346;52.006;4.720;2024-02-23T06:02:14;98752.06;;;6.63;100.00
18436;BME280;9346;52.006;4.720;2024-02-23T06:04:41;98751.03;;;6.59;100.00
18436;BME280;9346;52.006;4.720;2024-02-23T06:07:10;98748.50;;;6.63;100.00
18436;BME280;9346;52.006;4.720;2024-02-23T06:09:36;98751.53;;;6.61;100.00
18436;BME280;9346;52.006;4.720;2024-02-23T06:12:04;98755.63;;;6.64;100.00
18436;BME280;9346;52.006;4.720;2024-02-23T06:14:31;98751.47;;;6.66;100.00
18436;BME280;9346;52.006;4.720;2024-02-23T06:16:58;98748.44;;;6.68;100.00
18436;BME280;9346;52.006;4.720;2024-02-23T06:19:24;98748.44;;;6.68;100.00
18436;BME280;9346;52.006;4.720;2024-02-23T06:21:51;98755.50;;;6.69;100.00
18436;BME280;9346;52.006;4.720;2024-02-23T06:24:19;98758.25;;;6.69;100.00
18436;BME280;9346;52.006;4.720;2024-02-23T06:26:46;98755.81;;;6.67;100.00
18436;BME280;9346;52.006;4.720;2024-02-23T06:29:14;98766.47;;;6.69;100.00
18436;BME280;9346;52.006;4.720;2024-02-23T06:31:41;98769.72;;;6.71;100.00
18436;BME280;9346;52.006;4.720;2024-02-23T06:34:14;98765.56;;;6.73;100.00
18436;BME280;9346;52.006;4.720;2024-02-23T06:36:40;98757.06;;;6.75;100.00
18436;BME280;9346;52.006;4.720;2024-02-23T06:39:07;98756.56;;;6.73;100.00
18436;BME280;9346;52.006;4.720;2024-02-23T06:41:35;98757.06;;;6.75;100.00
18436;BME280;9346;52.006;4.720;2024-02-23T06:44:04;98745.91;;;6.71;100.00
18436;BME280;9346;52.006;4.720;2024-02-23T06:46:30;98751.28;;;6.76;100.00
18436;BME280;9346;52.006;4.720;2024-02-23T06:48:57;98752.41;;;6.75;100.00
18436;BME280;9346;52.006;4.720;2024-02-23T06:51:24;98751.59;;;6.75;100.00
18436;BME280;9346;52.006;4.720;2024-02-23T06:53:50;98756.47;;;6.78;100.00
18436;BME280;9346;52.006;4.720;2024-02-23T06:56:17;98758.09;;;6.79;100.00
18436;BME280;9346;52.006;4.720;2024-02-23T06:58:46;98756.16;;;6.79;100.00
18436;BME280;9346;52.006;4.720;2024-02-23T07:01:13;98753.66;;;6.83;100.00
18436;BME280;9346;52.006;4.720;2024-02-23T07:03:40;98750.91;;;6.83;100.00
18436;BME280;9346;52.006;4.720;2024-02-23T07:06:08;98759.91;;;6.83;100.00
18436;BME280;9346;52.006;4.720;2024-02-23T07:08:36;98757.47;;;6.82;100.00
18436;BME280;9346;52.006;4.720;2024-02-23T07:11:03;98755.88;;;6.81;100.00
18436;BME280;9346;52.006;4.720;2024-02-23T07:13:29;98762.47;;;6.80;100.00
18436;BME280;9346;52.006;4.720;2024-02-23T07:16:00;98754.25;;;6.80;100.00
18436;BME280;9346;52.006;4.720;2024-02-23T07:18:27;98762.97;;;6.82;100.00
18436;BME280;9346;52.006;4.720;2024-02-23T07:20:53;98766.22;;;6.84;100.00
18436;BME280;9346;52.006;4.720;2024-02-23T07:23:20;98766.75;;;6.86;100.00
18436;BME280;9346;52.006;4.720;2024-02-23T07:25:48;98756.28;;;6.88;100.00
18436;BME280;9346;52.006;4.720;2024-02-23T07:28:16;98761.75;;;6.88;100.00
18436;BME280;9346;52.006;4.720;2024-02-23T07:30:44;98757.13;;;6.88;100.00
18436;BME280;9346;52.006;4.720;2024-02-23T07:33:13;98749.72;;;6.89;100.00
18436;BME280;9346;52.006;4.720;2024-02-23T07:35:40;98741.00;;;6.87;100.00
18436;BME280;9346;52.006;4.720;2024-02-23T07:38:08;98746.16;;;6.88;100.00
18436;BME280;9346;52.006;4.720;2024-02-23T07:40:34;98737.66;;;6.90;100.00
18436;BME280;9346;52.006;4.720;2024-02-23T07:43:01;98746.16;;;6.88;100.00
18436;BME280;9346;52.006;4.720;2024-02-23T07:45:27;98736.94;;;6.84;100.00
18436;BME280;9346;52.006;4.720;2024-02-23T07:47:54;98733.38;;;6.84;100.00
18436;BME280;9346;52.006;4.720;2024-02-23T07:50:23;98740.47;;;6.85;100.00
18436;BME280;9346;52.006;4.720;2024-02-23T07:52:49;98738.63;;;6.80;100.00
18436;BME280;9346;52.006;4.720;2024-02-23T07:55:16;98737.31;;;6.78;100.00
18436;BME280;9346;52.006;4.720;2024-02-23T07:57:42;98729.69;;;6.75;100.00
18436;BME280;9346;52.006;4.720;2024-02-23T08:00:10;98737.41;;;6.73;100.00
18436;BME280;9346;52.006;4.720;2024-02-23T08:02:37;98733.16;;;6.67;100.00
18436;BME280;9346;52.006;4.720;2024-02-23T08:05:04;98731.31;;;6.62;100.00
18436;BME280;9346;52.006;4.720;2024-02-23T08:07:32;98728.44;;;6.54;100.00
18436;BME280;9346;52.006;4.720;2024-02-23T08:09:59;98725.78;;;6.49;100.00
18436;BME280;9346;52.006;4.720;2024-02-23T08:12:26;98727.97;;;6.47;100.00
18436;BME280;9346;52.006;4.720;2024-02-23T08:14:52;98722.00;;;6.45;100.00
18436;BME280;9346;52.006;4.720;2024-02-23T08:17:19;98717.13;;;6.42;100.00
18436;BME280;9346;52.006;4.720;2024-02-23T08:19:46;98731.94;;;6.41;100.00
18436;BME280;9346;52.006;4.720;2024-02-23T08:22:12;98721.00;;;6.41;100.00
18436;BME280;9346;52.006;4.720;2024-02-23T08:24:41;98735.47;;;6.41;100.00
18436;BME280;9346;52.006;4.720;2024-02-23T08:27:08;98734.88;;;6.44;100.00
18436;BME280;9346;52.006;4.720;2024-02-23T08:29:37;98730.72;;;6.47;100.00
18436;BME280;9346;52.006;4.720;2024-02-23T08:32:04;98730.94;;;6.50;100.00
18436;BME280;9346;52.006;4.720;2024-02-23T08:34:31;98736.94;;;6.52;100.00
18436;BME280;9346;52.006;4.720;2024-02-23T08:36:59;98729.81;;;6.51;100.00
18436;BME280;9346;52.006;4.720;2024-02-23T08:39:26;98741.34;;;6.48;100.00
18436;BME280;9346;52.006;4.720;2024-02-23T08:41:55;98735.09;;;6.48;100.00
18436;BME280;9346;52.006;4.720;2024-02-23T08:44:22;98739.16;;;6.50;100.00
18436;BME280;9346;52.006;4.720;2024-02-23T08:46:49;98740.25;;;6.49;100.00
18436;BME280;9346;52.006;4.720;2024-02-23T08:49:16;98751.50;;;6.48;100.00
18436;BME280;9346;52.006;4.720;2024-02-23T08:51:42;98741.16;;;6.45;100.00
18436;BME280;9346;52.006;4.720;2024-02-23T08:54:09;98738.72;;;6.43;100.00
18436;BME280;9346;52.006;4.720;2024-02-23T08:56:37;98732.44;;;6.43;100.00
18436;BME280;9346;52.006;4.720;2024-02-23T08:59:05;98740.88;;;6.46;100.00
18436;BME280;9346;52.006;4.720;2024-02-23T09:01:32;98731.78;;;6.51;100.00
18436;BME280;9346;52.006;4.720;2024-02-23T09:03:59;98728.34;;;6.59;100.00
18436;BME280;9346;52.006;4.720;2024-02-23T09:06:26;98726.13;;;6.61;100.00
18436;BME280;9346;52.006;4.720;2024-02-23T09:08:52;98722.50;;;6.65;100.00
18436;BME280;9346;52.006;4.720;2024-02-23T09:11:19;98730.09;;;6.68;100.00
18436;BME280;9346;52.006;4.720;2024-02-23T09:13:45;98723.13;;;6.76;100.00
18436;BME280;9346;52.006;4.720;2024-02-23T09:16:14;98725.25;;;6.79;100.00
18436;BME280;9346;52.006;4.720;2024-02-23T09:18:41;98726.66;;;6.76;100.00
18436;BME280;9346;52.006;4.720;2024-02-23T09:21:07;98725.19;;;6.84;100.00
18436;BME280;9346;52.006;4.720;2024-02-23T09:23:34;98726.00;;;6.84;100.00
18436;BME280;9346;52.006;4.720;2024-02-23T09:26:01;98726.78;;;6.85;100.00
18436;BME280;9346;52.006;4.720;2024-02-23T09:28:29;98728.56;;;6.95;100.00
18436;BME280;9346;52.006;4.720;2024-02-23T09:30:57;98728.97;;;7.02;100.00
18436;BME280;9346;52.006;4.720;2024-02-23T09:33:26;98723.38;;;7.07;100.00
18436;BME280;9346;52.006;4.720;2024-02-23T09:35:53;98724.31;;;7.02;100.00
18436;BME280;9346;52.006;4.720;2024-02-23T09:38:19;98730.88;;;7.01;100.00
18436;BME280;9346;52.006;4.720;2024-02-23T09:40:46;98736.66;;;7.00;100.00
18436;BME280;9346;52.006;4.720;2024-02-23T09:43:14;98737.88;;;7.07;100.00
18436;BME280;9346;52.006;4.720;2024-02-23T09:45:41;98740.31;;;7.09;100.00
18436;BME280;9346;52.006;4.720;2024-02-23T09:48:10;98745.59;;;7.19;100.00
18436;BME280;9346;52.006;4.720;2024-02-23T09:50:40;98738.94;;;7.25;100.00
18436;BME280;9346;52.006;4.720;2024-02-23T09:53:09;98746.22;;;7.29;100.00
18436;BME280;9346;52.006;4.720;2024-02-23T09:55:38;98761.53;;;7.30;100.00
18436;BME280;9346;52.006;4.720;2024-02-23T09:58:06;98759.81;;;7.34;100.00
18436;BME280;9346;52.006;4.720;2024-02-23T10:00:35;98760.63;;;7.35;100.00
18436;BME280;9346;52.006;4.720;2024-02-23T10:03:04;98766.13;;;7.35;100.00
18436;BME280;9346;52.006;4.720;2024-02-23T10:05:31;98768.25;;;7.38;100.00
18436;BME280;9346;52.006;4.720;2024-02-23T10:07:59;98765.22;;;7.39;100.00
18436;BME280;9346;52.006;4.720;2024-02-23T10:10:29;98766.81;;;7.40;100.00
18436;BME280;9346;52.006;4.720;2024-02-23T10:12:57;98771.81;;;7.38;100.00
18436;BME280;9346;52.006;4.720;2024-02-23T10:15:24;98781.63;;;7.39;100.00
18436;BME280;9346;52.006;4.720;2024-02-23T10:17:50;98761.88;;;7.42;100.00
18436;BME280;9346;52.006;4.720;2024-02-23T10:20:19;98760.34;;;7.50;100.00
18436;BME280;9346;52.006;4.720;2024-02-23T10:22:46;98767.34;;;7.56;100.00
18436;BME280;9346;52.006;4.720;2024-02-23T10:25:14;98774.03;;;7.63;100.00
18436;BME280;9346;52.006;4.720;2024-02-23T10:27:41;98787.56;;;7.73;100.00
18436;BME280;9346;52.006;4.720;2024-02-23T10:30:11;98791.00;;;7.79;100.00
18436;BME280;9346;52.006;4.720;2024-02-23T10:32:41;98794.44;;;7.84;100.00
18436;BME280;9346;52.006;4.720;2024-02-23T10:35:13;98797.69;;;7.86;100.00
18436;BME280;9346;52.006;4.720;2024-02-23T10:37:42;98786.81;;;7.95;100.00
18436;BME280;9346;52.006;4.720;2024-02-23T10:40:11;98787.72;;;8.04;100.00
18436;BME280;9346;52.006;4.720;2024-02-23T10:42:43;98793.91;;;8.09;100.00
18436;BME280;9346;52.006;4.720;2024-02-23T10:45:14;98788.19;;;8.19;100.00
18436;BME280;9346;52.006;4.720;2024-02-23T10:47:42;98794.00;;;8.31;100.00
18436;BME280;9346;52.006;4.720;2024-02-23T10:50:10;98794.50;;;8.33;100.00
18436;BME280;9346;52.006;4.720;2024-02-23T10:52:40;98800.66;;;8.39;100.00
18436;BME280;9346;52.006;4.720;2024-02-23T10:55:09;98802.88;;;8.50;100.00
18436;BME280;9346;52.006;4.720;2024-02-23T10:57:36;98801.16;;;8.54;100.00
18436;BME280;9346;52.006;4.720;2024-02-23T11:00:06;98804.59;;;8.60;100.00
18436;BME280;9346;52.006;4.720;2024-02-23T11:02:38;98804.69;;;8.55;100.00
18436;BME280;9346;52.006;4.720;2024-02-23T11:05:07;98797.66;;;8.62;100.00
18436;BME280;9346;52.006;4.720;2024-02-23T11:07:37;98798.03;;;8.69;100.00
18436;BME280;9346;52.006;4.720;2024-02-23T11:10:05;98799.00;;;8.65;100.00
18436;BME280;9346;52.006;4.720;2024-02-23T11:12:34;98810.66;;;8.70;100.00
18436;BME280;9346;52.006;4.720;2024-02-23T11:15:02;98803.09;;;8.76;100.00
18436;BME280;9346;52.006;4.720;2024-02-23T11:17:35;98804.91;;;8.80;100.00
18436;BME280;9346;52.006;4.720;2024-02-23T11:20:03;98794.72;;;8.81;100.00
18436;BME280;9346;52.006;4.720;2024-02-23T11:22:32;98808.78;;;8.79;100.00
18436;BME280;9346;52.006;4.720;2024-02-23T11:25:00;98806.06;;;8.79;100.00
18436;BME280;9346;52.006;4.720;2024-02-23T11:27:30;98817.03;;;8.79;100.00
18436;BME280;9346;52.006;4.720;2024-02-23T11:30:03;98818.94;;;8.79;100.00
18436;BME280;9346;52.006;4.720;2024-02-23T11:32:39;98827.88;;;8.84;100.00
18436;BME280;9346;52.006;4.720;2024-02-23T11:35:07;98824.50;;;8.87;100.00
18436;BME280;9346;52.006;4.720;2024-02-23T11:37:44;98828.88;;;8.88;100.00
18436;BME280;9346;52.006;4.720;2024-02-23T11:40:12;98816.63;;;8.94;100.00
18436;BME280;9346;52.006;4.720;2024-02-23T11:42:40;98818.59;;;8.94;100.00
18436;BME280;9346;52.006;4.720;2024-02-23T11:45:08;98828.81;;;9.02;100.00
18436;BME280;9346;52.006;4.720;2024-02-23T11:47:36;98836.63;;;9.08;100.00
18436;BME280;9346;52.006;4.720;2024-02-23T11:50:07;98835.66;;;9.13;100.00
18436;BME280;9346;52.006;4.720;2024-02-23T11:52:34;98847.47;;;9.13;100.00
18436;BME280;9346;52.006;4.720;2024-02-23T11:55:00;98842.28;;;9.12;100.00
18436;BME280;9346;52.006;4.720;2024-02-23T11:57:27;98845.03;;;9.12;100.00
18436;BME280;9346;52.006;4.720;2024-02-23T11:59:54;98824.50;;;9.09;100.00
18436;BME280;9346;52.006;4.720;2024-02-23T12:02:21;98839.47;;;9.03;100.00
18436;BME280;9346;52.006;4.720;2024-02-23T12:04:47;98833.78;;;9.00;100.00
18436;BME280;9346;52.006;4.720;2024-02-23T12:07:16;98832.81;;;8.96;100.00
18436;BME280;9346;52.006;4.720;2024-02-23T12:09:43;98843.84;;;9.04;100.00
18436;BME280;9346;52.006;4.720;2024-02-23T12:12:09;98837.72;;;9.07;100.00
18436;BME280;9346;52.006;4.720;2024-02-23T12:14:36;98843.44;;;9.11;100.00
18436;BME280;9346;52.006;4.720;2024-02-23T12:17:03;98844.09;;;9.17;100.00
18436;BME280;9346;52.006;4.720;2024-02-23T12:19:32;98836.69;;;9.17;100.00
18436;BME280;9346;52.006;4.720;2024-02-23T12:22:00;98839.28;;;9.22;100.00
18436;BME280;9346;52.006;4.720;2024-02-23T12:24:29;98839.78;;;9.24;100.00
18436;BME280;9346;52.006;4.720;2024-02-23T12:26:56;98838.84;;;9.29;100.00
18436;BME280;9346;52.006;4.720;2024-02-23T12:29:24;98828.84;;;9.33;100.00
18436;BME280;9346;52.006;4.720;2024-02-23T12:31:50;98841.34;;;9.39;100.00
18436;BME280;9346;52.006;4.720;2024-02-23T12:34:18;98838.75;;;9.42;100.00
18436;BME280;9346;52.006;4.720;2024-02-23T12:36:46;98841.69;;;9.46;100.00
18436;BME280;9346;52.006;4.720;2024-02-23T12:39:12;98841.59;;;9.51;100.00
18436;BME280;9346;52.006;4.720;2024-02-23T12:41:41;98851.91;;;9.54;100.00
18436;BME280;9346;52.006;4.720;2024-02-23T12:44:07;98859.84;;;9.55;100.00
18436;BME280;9346;52.006;4.720;2024-02-23T12:46:34;98848.41;;;9.62;100.00
18436;BME280;9346;52.006;4.720;2024-02-23T12:49:01;98864.78;;;9.67;100.00
18436;BME280;9346;52.006;4.720;2024-02-23T12:51:27;98872.22;;;9.66;100.00
18436;BME280;9346;52.006;4.720;2024-02-23T12:53:54;98866.72;;;9.66;100.00
18436;BME280;9346;52.006;4.720;2024-02-23T12:56:20;98871.59;;;9.69;100.00
18436;BME280;9346;52.006;4.720;2024-02-23T12:58:48;98864.63;;;9.72;100.00
18436;BME280;9346;52.006;4.720;2024-02-23T13:01:16;98867.91;;;9.74;100.00
18436;BME280;9346;52.006;4.720;2024-02-23T13:03:43;98865.94;;;9.74;100.00
18436;BME280;9346;52.006;4.720;2024-02-23T13:06:09;98864.00;;;9.75;100.00
18436;BME280;9346;52.006;4.720;2024-02-23T13:08:36;98873.56;;;9.77;100.00
18436;BME280;9346;52.006;4.720;2024-02-23T13:11:04;98866.63;;;9.80;100.00